createdAt,value
2023-04-12T00:01:03.911Z,100455.13
2023-04-12T00:02:09.438Z,100453.7
2023-04-12T00:03:15.258Z,100448.11
2023-04-12T00:04:21.219Z,100450.8
2023-04-12T00:05:27.295Z,100454.55
2023-04-12T00:06:32.697Z,100448.77
2023-04-12T00:07:38.111Z,100448.27
2023-04-12T00:08:43.476Z,100450.95
2023-04-12T00:09:48.841Z,100454.89
2023-04-12T00:10:54.236Z,100461.84
2023-04-12T00:11:59.599Z,100456.05
2023-04-12T00:13:04.963Z,100452.29
2023-04-12T00:14:10.301Z,100457.65
2023-04-12T00:15:15.720Z,100458.16
2023-04-12T00:16:21.165Z,100453.88
2023-04-12T00:17:26.618Z,100458.16
2023-04-12T00:18:32.083Z,100450.53
2023-04-12T00:19:37.470Z,100457.05
2023-04-12T00:20:42.839Z,100455.22
2023-04-12T00:21:48.244Z,100449.53
2023-04-12T00:22:53.620Z,100451.61
2023-04-12T00:23:59.254Z,100457.04
2023-04-12T00:25:04.805Z,100452.46
2023-04-12T00:26:10.285Z,100446.84
2023-04-12T00:27:15.669Z,100445.16
2023-04-12T00:28:21.071Z,100449.86
2023-04-12T00:29:26.439Z,100447.44
2023-04-12T00:30:32.038Z,100445.25
2023-04-12T00:31:37.540Z,100446.67
2023-04-12T00:32:43.057Z,100439.08
2023-04-12T00:33:48.643Z,100447.86
2023-04-12T00:34:54.076Z,100445.25
2023-04-12T00:36:01.822Z,100446.17
2023-04-12T00:37:07.235Z,100443.64
2023-04-12T00:38:12.591Z,100447.25
2023-04-12T00:39:17.957Z,100444.16
2023-04-12T00:40:25.866Z,100444.64
2023-04-12T00:41:31.237Z,100439.41
2023-04-12T00:42:36.591Z,100445.09
2023-04-12T00:43:41.939Z,100446.67
2023-04-12T00:44:47.341Z,100443.17
2023-04-12T00:45:52.719Z,100439.08
2023-04-12T00:46:58.672Z,100438.55
2023-04-12T00:48:04.306Z,100440.07
2023-04-12T00:49:09.751Z,100451.78
2023-04-12T00:50:15.140Z,100448.45
2023-04-12T00:51:20.525Z,100451.28
2023-04-12T00:52:25.900Z,100448.27
2023-04-12T00:53:31.265Z,100452.2
2023-04-12T00:54:36.638Z,100447.52
2023-04-12T00:55:42.017Z,100450.52
2023-04-12T00:56:47.408Z,100453.2
2023-04-12T00:57:52.757Z,100450.11
2023-04-12T00:58:58.153Z,100449.94
2023-04-12T01:00:03.556Z,100451.53
2023-04-12T01:01:09.027Z,100446.33
2023-04-12T01:02:14.861Z,100447.84
2023-04-12T01:03:20.767Z,100449
2023-04-12T01:04:26.517Z,100455.22
2023-04-12T01:05:31.940Z,100448.25
2023-04-12T01:06:37.308Z,100451.01
2023-04-12T01:07:42.683Z,100445.91
2023-04-12T01:08:48.036Z,100449
2023-04-12T01:09:53.425Z,100450.67
2023-04-12T01:10:58.783Z,100452.12
2023-04-12T01:12:04.173Z,100454.8
2023-04-12T01:13:09.547Z,100453.61
2023-04-12T01:14:14.923Z,100459.64
2023-04-12T01:15:20.324Z,100457.89
2023-04-12T01:16:25.802Z,100454.88
2023-04-12T01:17:31.350Z,100467.59
2023-04-12T01:18:36.801Z,100462.56
2023-04-12T01:19:42.176Z,100459.14
2023-04-12T01:20:47.509Z,100457.8
2023-04-12T01:21:52.904Z,100463.58
2023-04-12T01:22:58.314Z,100461.49
2023-04-12T01:24:03.767Z,100453.12
2023-04-12T01:25:09.162Z,100449.77
2023-04-12T01:26:14.658Z,100454.69
2023-04-12T01:27:20.204Z,100450.19
2023-04-12T01:28:25.602Z,100450.19
2023-04-12T01:29:30.985Z,100455.13
2023-04-12T01:30:37.392Z,100451.67
2023-04-12T01:31:42.876Z,100453.94
2023-04-12T01:32:48.516Z,100455.28
2023-04-12T01:33:54.041Z,100453.94
2023-04-12T01:34:59.817Z,100456.95
2023-04-12T01:36:07.761Z,100460.72
2023-04-12T01:37:13.243Z,100452.27
2023-04-12T01:38:18.606Z,100455.02
2023-04-12T01:39:24.034Z,100460.64
2023-04-12T01:40:29.392Z,100452.18
2023-04-12T01:41:34.774Z,100458.62
2023-04-12T01:42:40.175Z,100457.02
2023-04-12T01:43:45.555Z,100447.91
2023-04-12T01:44:50.978Z,100459.89
2023-04-12T01:45:56.391Z,100456.12
2023-04-12T01:47:01.865Z,100451.17
2023-04-12T01:48:07.400Z,100456.38
2023-04-12T01:49:13.050Z,100446.48
2023-04-12T01:50:18.423Z,100452.92
2023-04-12T01:51:23.803Z,100446.67
2023-04-12T01:52:29.177Z,100455.19
2023-04-12T01:53:34.743Z,100452.36
2023-04-12T01:54:40.136Z,100445.41
2023-04-12T01:55:45.469Z,100453.11
2023-04-12T01:56:50.834Z,100446.98
2023-04-12T01:57:56.224Z,100453.34
2023-04-12T01:59:01.639Z,100447.5
2023-04-12T02:00:07.059Z,100452.45
2023-04-12T02:01:12.503Z,100448.58
2023-04-12T02:02:18.161Z,100451.02
2023-04-12T02:03:23.967Z,100451.77
2023-04-12T02:04:29.638Z,100455.11
2023-04-12T02:05:35.064Z,100453.93
2023-04-12T02:06:40.419Z,100459.62
2023-04-12T02:07:45.785Z,100460.28
2023-04-12T02:08:51.156Z,100451.23
2023-04-12T02:09:56.571Z,100449.89
2023-04-12T02:11:01.974Z,100450.01
2023-04-12T02:12:07.356Z,100444.21
2023-04-12T02:13:12.732Z,100445.99
2023-04-12T02:14:18.134Z,100450.83
2023-04-12T02:15:23.524Z,100446.66
2023-04-12T02:16:28.957Z,100447.81
2023-04-12T02:17:34.532Z,100442.65
2023-04-12T02:18:39.957Z,100447.08
2023-04-12T02:19:45.328Z,100451.24
2023-04-12T02:20:50.686Z,100450.23
2023-04-12T02:21:56.100Z,100448.74
2023-04-12T02:23:01.549Z,100445.14
2023-04-12T02:24:06.956Z,100447.56
2023-04-12T02:25:12.338Z,100447.23
2023-04-12T02:26:17.701Z,100445.73
2023-04-12T02:27:23.064Z,100442.2
2023-04-12T02:28:28.435Z,100437.52
2023-04-12T02:29:33.825Z,100448.08
2023-04-12T02:30:39.330Z,100433.34
2023-04-12T02:31:44.740Z,100438.7
2023-04-12T02:32:50.142Z,100435.77
2023-04-12T02:33:56.130Z,100431.92
2023-04-12T02:35:02.032Z,100425.08
2023-04-12T02:36:07.449Z,100424.41
2023-04-12T02:37:12.795Z,100426.19
2023-04-12T02:38:18.205Z,100426.94
2023-04-12T02:39:23.804Z,100426.6
2023-04-12T02:40:29.198Z,100432.89
2023-04-12T02:41:34.681Z,100426.67
2023-04-12T02:42:41.789Z,100424.89
2023-04-12T02:43:47.146Z,100423.89
2023-04-12T02:44:52.560Z,100419.36
2023-04-12T02:45:58.007Z,100421.62
2023-04-12T02:47:03.535Z,100419.54
2023-04-12T02:48:08.995Z,100421.55
2023-04-12T02:49:14.791Z,100417.94
2023-04-12T02:50:21.065Z,100423.78
2023-04-12T02:51:26.424Z,100412.73
2023-04-12T02:52:31.800Z,100413.47
2023-04-12T02:53:37.144Z,100422.11
2023-04-12T02:54:42.669Z,100417.53
2023-04-12T02:55:48.034Z,100421.45
2023-04-12T02:56:53.444Z,100421.55
2023-04-12T02:57:58.858Z,100416.86
2023-04-12T02:59:04.216Z,100419.55
2023-04-12T03:00:09.664Z,100415.08
2023-04-12T03:01:15.125Z,100411.32
2023-04-12T03:02:20.714Z,100407.38
2023-04-12T03:03:26.595Z,100408.64
2023-04-12T03:04:32.508Z,100412.25
2023-04-12T03:05:38.317Z,100408.82
2023-04-12T03:06:43.762Z,100406.04
2023-04-12T03:07:49.155Z,100404.22
2023-04-12T03:08:54.551Z,100407.3
2023-04-12T03:09:59.915Z,100406.37
2023-04-12T03:11:05.321Z,100400.2
2023-04-12T03:12:10.710Z,100402.87
2023-04-12T03:13:16.239Z,100396.33
2023-04-12T03:14:21.598Z,100400.79
2023-04-12T03:15:27.146Z,100398.78
2023-04-12T03:16:32.591Z,100404.22
2023-04-12T03:17:38.073Z,100394.8
2023-04-12T03:18:43.501Z,100398.19
2023-04-12T03:19:48.859Z,100399.41
2023-04-12T03:20:54.221Z,100397.48
2023-04-12T03:21:59.592Z,100397.22
2023-04-12T03:23:05.070Z,100393.39
2023-04-12T03:24:10.464Z,100391.71
2023-04-12T03:25:15.876Z,100400.23
2023-04-12T03:26:21.342Z,100402.36
2023-04-12T03:27:26.699Z,100390.71
2023-04-12T03:28:32.056Z,100393.88
2023-04-12T03:29:37.423Z,100395.29
2023-04-12T03:30:42.864Z,100395.8
2023-04-12T03:31:48.377Z,100397.55
2023-04-12T03:32:53.786Z,100398.89
2023-04-12T03:33:59.697Z,100397.63
2023-04-12T03:35:05.368Z,100393.72
2023-04-12T03:36:10.746Z,100405.25
2023-04-12T03:37:19.105Z,100399.14
2023-04-12T03:38:24.525Z,100404.17
2023-04-12T03:39:29.956Z,100402.58
2023-04-12T03:40:35.359Z,100402.16
2023-04-12T03:41:40.733Z,100398.07
2023-04-12T03:42:46.097Z,100403.66
2023-04-12T03:43:51.472Z,100396.96
2023-04-12T03:44:56.846Z,100393.46
2023-04-12T03:46:02.287Z,100396.96
2023-04-12T03:47:07.769Z,100395.55
2023-04-12T03:48:13.209Z,100394.28
2023-04-12T03:49:18.647Z,100395.44
2023-04-12T03:50:24.106Z,100397.52
2023-04-12T03:51:29.515Z,100396.59
2023-04-12T03:52:35.179Z,100394.84
2023-04-12T03:53:40.574Z,100391.31
2023-04-12T03:54:45.970Z,100384.61
2023-04-12T03:55:51.339Z,100396.25
2023-04-12T03:56:56.807Z,100390.05
2023-04-12T03:58:02.218Z,100392.06
2023-04-12T03:59:07.649Z,100388.72
2023-04-12T04:00:13.078Z,100397.67
2023-04-12T04:01:18.462Z,100391.2
2023-04-12T04:02:24.336Z,100395.61
2023-04-12T04:03:30.382Z,100392.03
2023-04-12T04:04:36.157Z,100389.02
2023-04-12T04:05:41.762Z,100391.77
2023-04-12T04:06:47.285Z,100385.56
2023-04-12T04:07:52.654Z,100389.77
2023-04-12T04:08:58.029Z,100388.81
2023-04-12T04:10:03.443Z,100387.41
2023-04-12T04:11:10.410Z,100388.91
2023-04-12T04:12:16.046Z,100381.47
2023-04-12T04:13:21.490Z,100380.55
2023-04-12T04:14:27.124Z,100380.11
2023-04-12T04:15:32.488Z,100380.63
2023-04-12T04:16:37.924Z,100383.86
2023-04-12T04:17:43.447Z,100381.52
2023-04-12T04:18:48.928Z,100381.25
2023-04-12T04:19:54.384Z,100382.36
2023-04-12T04:20:59.777Z,100389.8
2023-04-12T04:22:05.209Z,100384.1
2023-04-12T04:23:10.996Z,100390.13
2023-04-12T04:24:16.400Z,100385.25
2023-04-12T04:25:22.042Z,100384.42
2023-04-12T04:26:27.395Z,100385.66
2023-04-12T04:27:32.766Z,100386.77
2023-04-12T04:28:38.161Z,100388.81
2023-04-12T04:29:43.532Z,100384.86
2023-04-12T04:30:48.886Z,100391.61
2023-04-12T04:31:54.301Z,100389.81
2023-04-12T04:32:59.805Z,100390.15
2023-04-12T04:34:05.392Z,100393.84
2023-04-12T04:35:10.813Z,100391.61
2023-04-12T04:36:16.183Z,100392.55
2023-04-12T04:37:21.611Z,100389.12
2023-04-12T04:38:27.742Z,100393.37
2023-04-12T04:39:36.243Z,100392.95
2023-04-12T04:40:44.703Z,100398.51
2023-04-12T04:41:50.131Z,100392.89
2023-04-12T04:42:55.516Z,100396.91
2023-04-12T04:44:00.998Z,100397.17
2023-04-12T04:45:06.353Z,100400.86
2023-04-12T04:46:11.845Z,100405.63
2023-04-12T04:47:17.350Z,100403.63
2023-04-12T04:48:22.720Z,100405.04
2023-04-12T04:49:28.172Z,100399.86
2023-04-12T04:50:33.628Z,100403.36
2023-04-12T04:51:39.009Z,100401.8
2023-04-12T04:52:44.460Z,100401.95
2023-04-12T04:53:49.843Z,100401.28
2023-04-12T04:54:55.215Z,100393.83
2023-04-12T04:56:00.593Z,100395.77
2023-04-12T04:57:05.988Z,100393.34
2023-04-12T04:58:11.366Z,100396.52
2023-04-12T04:59:16.747Z,100396.59
2023-04-12T05:00:22.222Z,100401.2
2023-04-12T05:01:27.739Z,100400.54
2023-04-12T05:02:33.384Z,100401.2
2023-04-12T05:03:39.261Z,100403.73
2023-04-12T05:04:44.821Z,100400.39
2023-04-12T05:05:50.161Z,100404.97
2023-04-12T05:06:55.573Z,100402.73
2023-04-12T05:08:00.931Z,100393.95
2023-04-12T05:09:06.337Z,100398.97
2023-04-12T05:10:11.716Z,100401.31
2023-04-12T05:11:17.126Z,100407.58
2023-04-12T05:12:22.547Z,100402.81
2023-04-12T05:13:27.898Z,100409.17
2023-04-12T05:14:51.583Z,100409.02
2023-04-12T05:16:08.778Z,100413.11
2023-04-12T05:17:14.352Z,100410.77
2023-04-12T05:18:19.954Z,100407.49
2023-04-12T05:19:25.359Z,100401.12
2023-04-12T05:20:30.712Z,100405.07
2023-04-12T05:21:36.137Z,100405.66
2023-04-12T05:22:41.518Z,100412.62
2023-04-12T05:23:46.955Z,100409.94
2023-04-12T05:24:52.369Z,100410.42
2023-04-12T05:25:57.777Z,100418.46
2023-04-12T05:27:03.149Z,100407.92
2023-04-12T05:28:08.525Z,100412.36
2023-04-12T05:29:13.916Z,100409.09
2023-04-12T05:30:19.301Z,100408.75
2023-04-12T05:31:25.406Z,100408.34
2023-04-12T05:32:31.097Z,100406.81
2023-04-12T05:33:36.621Z,100413.69
2023-04-12T05:34:42.068Z,100404.91
2023-04-12T05:35:47.559Z,100404.64
2023-04-12T05:36:52.987Z,100401.45
2023-04-12T05:37:58.526Z,100409.67
2023-04-12T05:39:04.213Z,100409.59
2023-04-12T05:40:09.633Z,100395.86
2023-04-12T05:41:15.056Z,100403.91
2023-04-12T05:42:20.436Z,100400.78
2023-04-12T05:43:25.857Z,100400.55
2023-04-12T05:44:31.251Z,100398.36
2023-04-12T05:45:36.629Z,100397.69
2023-04-12T05:46:42.387Z,100392.52
2023-04-12T05:47:47.974Z,100389.25
2023-04-12T05:48:53.548Z,100389.06
2023-04-12T05:49:59.092Z,100394.86
2023-04-12T05:51:04.592Z,100391.75
2023-04-12T05:52:09.980Z,100387.06
2023-04-12T05:53:15.354Z,100396.77
2023-04-12T05:54:21.822Z,100393.09
2023-04-12T05:55:27.316Z,100392.16
2023-04-12T05:56:32.692Z,100390.81
2023-04-12T05:57:38.092Z,100383.12
2023-04-12T05:58:43.480Z,100384.56
2023-04-12T05:59:48.875Z,100386.8
2023-04-12T06:00:54.271Z,100390.92
2023-04-12T06:01:59.810Z,100395.77
2023-04-12T06:03:05.581Z,100397.03
2023-04-12T06:04:11.347Z,100390.81
2023-04-12T06:05:17.170Z,100395.69
2023-04-12T06:06:22.702Z,100393.09
2023-04-12T06:07:28.076Z,100383.3
2023-04-12T06:08:36.137Z,100392.67
2023-04-12T06:09:41.946Z,100380.88
2023-04-12T06:10:47.356Z,100382.11
2023-04-12T06:11:52.750Z,100385.38
2023-04-12T06:12:58.185Z,100379.87
2023-04-12T06:14:03.565Z,100385.48
2023-04-12T06:15:08.917Z,100389.92
2023-04-12T06:16:14.397Z,100388.66
2023-04-12T06:17:19.853Z,100380.2
2023-04-12T06:18:25.535Z,100374.44
2023-04-12T06:19:31.058Z,100370.98
2023-04-12T06:20:36.452Z,100367.74
2023-04-12T06:21:41.892Z,100376.11
2023-04-12T06:22:47.249Z,100370.16
2023-04-12T06:23:52.746Z,100367.48
2023-04-12T06:24:58.105Z,100372.32
2023-04-12T06:26:03.535Z,100371.5
2023-04-12T06:27:09.029Z,100369.08
2023-04-12T06:28:14.377Z,100368.97
2023-04-12T06:29:19.756Z,100371.83
2023-04-12T06:30:25.147Z,100369.49
2023-04-12T06:31:30.668Z,100369.91
2023-04-12T06:32:38.897Z,100364.28
2023-04-12T06:33:44.354Z,100361.94
2023-04-12T06:34:49.720Z,100364.39
2023-04-12T06:35:55.212Z,100361.2
2023-04-12T06:37:00.657Z,100362.37
2023-04-12T06:38:06.099Z,100366.06
2023-04-12T06:39:11.510Z,100369.75
2023-04-12T06:40:17.910Z,100370.08
2023-04-12T06:41:23.784Z,100368.3
2023-04-12T06:42:29.147Z,100376
2023-04-12T06:43:37.518Z,100377.34
2023-04-12T06:44:43.185Z,100367.89
2023-04-12T06:45:48.564Z,100372.58
2023-04-12T06:46:54.302Z,100369.15
2023-04-12T06:47:59.854Z,100373.24
2023-04-12T06:49:05.360Z,100372.75
2023-04-12T06:50:10.748Z,100375.25
2023-04-12T06:51:16.112Z,100370.75
2023-04-12T06:52:21.519Z,100364.61
2023-04-12T06:53:26.928Z,100368.55
2023-04-12T06:54:32.288Z,100372.31
2023-04-12T06:55:39.916Z,100367.47
2023-04-12T06:56:45.356Z,100365.12
2023-04-12T06:57:50.747Z,100361.59
2023-04-12T06:58:56.531Z,100356.23
2023-04-12T07:00:02.205Z,100357.72
2023-04-12T07:01:07.645Z,100363.06
2023-04-12T07:02:13.566Z,100355.22
2023-04-12T07:03:19.281Z,100365.48
2023-04-12T07:04:24.817Z,100358.89
2023-04-12T07:05:30.324Z,100356.3
2023-04-12T07:06:35.710Z,100356.38
2023-04-12T07:07:41.105Z,100355.7
2023-04-12T07:08:46.505Z,100356.3
2023-04-12T07:09:51.911Z,100352.33
2023-04-12T07:10:57.301Z,100348.05
2023-04-12T07:12:08.007Z,100354.26
2023-04-12T07:13:14.061Z,100351.33
2023-04-12T07:14:19.420Z,100348.39
2023-04-12T07:15:24.823Z,100348.72
2023-04-12T07:16:30.309Z,100349.73
2023-04-12T07:17:35.898Z,100353
2023-04-12T07:18:41.455Z,100347.39
2023-04-12T07:19:46.838Z,100344.12
2023-04-12T07:20:52.229Z,100349.55
2023-04-12T07:21:57.932Z,100347.88
2023-04-12T07:23:03.384Z,100342.59
2023-04-12T07:24:08.783Z,100341.36
2023-04-12T07:25:14.128Z,100342.36
2023-04-12T07:26:19.624Z,100341.77
2023-04-12T07:27:25.025Z,100339.77
2023-04-12T07:28:30.518Z,100338.42
2023-04-12T07:29:35.916Z,100338.16
2023-04-12T07:30:41.300Z,100334.73
2023-04-12T07:31:46.829Z,100332.23
2023-04-12T07:32:52.367Z,100329.38
2023-04-12T07:33:58.137Z,100331.31
2023-04-12T07:35:03.751Z,100328.7
2023-04-12T07:36:09.355Z,100329.38
2023-04-12T07:37:14.830Z,100326.47
2023-04-12T07:38:20.184Z,100323.34
2023-04-12T07:39:25.605Z,100325.69
2023-04-12T07:40:31.060Z,100323.5
2023-04-12T07:41:36.483Z,100324.02
2023-04-12T07:42:41.874Z,100328.27
2023-04-12T07:43:47.260Z,100326.44
2023-04-12T07:44:52.615Z,100330.27
2023-04-12T07:45:59.150Z,100331.7
2023-04-12T07:47:04.701Z,100327.17
2023-04-12T07:48:10.194Z,100322.82
2023-04-12T07:49:15.571Z,100326.69
2023-04-12T07:50:20.986Z,100327.51
2023-04-12T07:51:26.364Z,100317.88
2023-04-12T07:52:31.931Z,100322.74
2023-04-12T07:53:37.339Z,100323.48
2023-04-12T07:54:42.777Z,100319.22
2023-04-12T07:55:48.202Z,100313.45
2023-04-12T07:56:53.586Z,100313.86
2023-04-12T07:57:58.996Z,100311.28
2023-04-12T07:59:04.373Z,100313.03
2023-04-12T08:00:09.728Z,100313.37
2023-04-12T08:01:15.093Z,100315.63
2023-04-12T08:02:20.606Z,100311.09
2023-04-12T08:03:26.475Z,100311.28
2023-04-12T08:04:32.054Z,100310.36
2023-04-12T08:05:37.607Z,100314.71
2023-04-12T08:06:43.190Z,100314.19
2023-04-12T08:07:48.574Z,100307.02
2023-04-12T08:08:54.008Z,100306.49
2023-04-12T08:09:59.495Z,100313.63
2023-04-12T08:11:04.849Z,100311.45
2023-04-12T08:12:10.864Z,100307.69
2023-04-12T08:13:16.229Z,100308.5
2023-04-12T08:14:21.596Z,100305.83
2023-04-12T08:15:27.076Z,100310.7
2023-04-12T08:16:32.567Z,100306.42
2023-04-12T08:17:38.049Z,100309.69
2023-04-12T08:18:43.503Z,100309.09
2023-04-12T08:19:49.124Z,100301.4
2023-04-12T08:20:54.572Z,100306.01
2023-04-12T08:21:59.917Z,100307.42
2023-04-12T08:23:05.275Z,100303.41
2023-04-12T08:24:10.653Z,100302.59
2023-04-12T08:25:16.333Z,100309.95
2023-04-12T08:26:21.891Z,100308.09
2023-04-12T08:27:30.601Z,100305.16
2023-04-12T08:28:36.442Z,100301.99
2023-04-12T08:29:43.962Z,100303.15
2023-04-12T08:30:49.373Z,100300.88
2023-04-12T08:31:54.802Z,100297.13
2023-04-12T08:33:00.364Z,100300.21
2023-04-12T08:34:05.871Z,100301.55
2023-04-12T08:35:11.264Z,100303.74
2023-04-12T08:36:16.819Z,100297.64
2023-04-12T08:37:22.283Z,100296.79
2023-04-12T08:38:45.894Z,100297.2
2023-04-12T08:39:54.119Z,100299.73
2023-04-12T08:40:59.522Z,100298.55
2023-04-12T08:42:04.914Z,100298.8
2023-04-12T08:43:13.680Z,100297.13
2023-04-12T08:44:19.069Z,100296.79
2023-04-12T08:45:24.481Z,100296.3
2023-04-12T08:46:29.954Z,100294.37
2023-04-12T08:47:35.507Z,100293.7
2023-04-12T08:48:41.025Z,100284.73
2023-04-12T08:49:48.791Z,100288.84
2023-04-12T08:50:54.201Z,100291.8
2023-04-12T08:51:59.607Z,100292.47
2023-04-12T08:53:05.054Z,100289.8
2023-04-12T08:54:10.447Z,100290.12
2023-04-12T08:55:15.812Z,100290.54
2023-04-12T08:56:21.202Z,100291.66
2023-04-12T08:57:26.569Z,100284.92
2023-04-12T08:58:34.128Z,100283.02
2023-04-12T08:59:39.581Z,100283.92
2023-04-12T09:00:44.949Z,100282.5
2023-04-12T09:01:50.535Z,100284.5
2023-04-12T09:02:56.550Z,100282.16
2023-04-12T09:04:03.376Z,100282.91
2023-04-12T09:05:10.051Z,100280.89
2023-04-12T09:06:15.690Z,100268.42
2023-04-12T09:07:21.126Z,100276.88
2023-04-12T09:08:26.601Z,100273.71
2023-04-12T09:09:31.977Z,100269.69
2023-04-12T09:10:37.571Z,100270.92
2023-04-12T09:11:42.999Z,100271.26
2023-04-12T09:12:48.963Z,100268.16
2023-04-12T09:13:57.335Z,100261.66
2023-04-12T09:15:03.670Z,100261.98
2023-04-12T09:16:09.154Z,100262.48
2023-04-12T09:17:14.601Z,100257.53
2023-04-12T09:18:20.059Z,100259.05
2023-04-12T09:19:25.595Z,100255.55
2023-04-12T09:20:31.008Z,100258.39
2023-04-12T09:21:36.429Z,100253.11
2023-04-12T09:22:42.174Z,100249.19
2023-04-12T09:23:47.537Z,100253.29
2023-04-12T09:24:52.952Z,100245
2023-04-12T09:25:58.429Z,100252.11
2023-04-12T09:27:03.815Z,100245.41
2023-04-12T09:28:09.193Z,100249.94
2023-04-12T09:29:14.612Z,100244.59
2023-04-12T09:30:20.400Z,100248.94
2023-04-12T09:31:25.923Z,100251.09
2023-04-12T09:32:31.522Z,100251.62
2023-04-12T09:33:37.000Z,100252.77
2023-04-12T09:34:42.450Z,100247.27
2023-04-12T09:35:48.029Z,100252.95
2023-04-12T09:36:53.664Z,100251.36
2023-04-12T09:37:59.081Z,100253.11
2023-04-12T09:39:06.734Z,100256.39
2023-04-12T09:40:12.169Z,100252.7
2023-04-12T09:41:22.401Z,100247.27
2023-04-12T09:42:35.703Z,100249.88
2023-04-12T09:43:41.089Z,100253.3
2023-04-12T09:44:46.505Z,100249.88
2023-04-12T09:45:51.895Z,100245.34
2023-04-12T09:46:57.631Z,100250.62
2023-04-12T09:48:03.149Z,100240.98
2023-04-12T09:49:08.577Z,100239.05
2023-04-12T09:50:13.956Z,100239.64
2023-04-12T09:51:19.378Z,100237.48
2023-04-12T09:52:24.801Z,100240.16
2023-04-12T09:53:30.214Z,100241.5
2023-04-12T09:54:35.566Z,100239.72
2023-04-12T09:55:40.950Z,100241.58
2023-04-12T09:56:46.322Z,100239.23
2023-04-12T09:57:51.758Z,100235.7
2023-04-12T09:58:57.923Z,100235.7
2023-04-12T10:00:03.547Z,100233.55
2023-04-12T10:01:09.051Z,100233.55
2023-04-12T10:02:14.883Z,100234.14
2023-04-12T10:03:20.876Z,100228.67
2023-04-12T10:04:27.329Z,100227
2023-04-12T10:05:33.380Z,100231.02
2023-04-12T10:06:39.009Z,100230.13
2023-04-12T10:07:44.434Z,100227.11
2023-04-12T10:08:49.844Z,100227
2023-04-12T10:09:55.252Z,100216.28
2023-04-12T10:11:00.648Z,100224.43
2023-04-12T10:12:06.064Z,100224.84
2023-04-12T10:13:11.626Z,100223.5
2023-04-12T10:14:19.037Z,100222.16
2023-04-12T10:15:24.461Z,100222.76
2023-04-12T10:16:30.036Z,100222.58
2023-04-12T10:17:35.678Z,100221.75
2023-04-12T10:18:41.251Z,100214.2
2023-04-12T10:19:46.682Z,100211.7
2023-04-12T10:20:52.116Z,100212.86
2023-04-12T10:21:57.516Z,100211.45
2023-04-12T10:23:02.952Z,100212.7
2023-04-12T10:24:08.423Z,100213.86
2023-04-12T10:25:13.940Z,100206.09
2023-04-12T10:26:19.403Z,100204.83
2023-04-12T10:27:24.813Z,100203.82
2023-04-12T10:28:30.551Z,100202.48
2023-04-12T10:29:36.086Z,100199.39
2023-04-12T10:30:41.620Z,100201.48
2023-04-12T10:31:47.204Z,100200.22
2023-04-12T10:32:52.778Z,100199.88
2023-04-12T10:33:58.270Z,100201.33
2023-04-12T10:35:03.702Z,100207.51
2023-04-12T10:36:09.202Z,100206.69
2023-04-12T10:37:14.671Z,100200.4
2023-04-12T10:38:20.078Z,100204.61
2023-04-12T10:39:25.513Z,100198.32
2023-04-12T10:40:30.954Z,100197.65
2023-04-12T10:41:38.541Z,100199.4
2023-04-12T10:42:43.938Z,100189.28
2023-04-12T10:43:49.561Z,100198.25
2023-04-12T10:44:55.126Z,100195.72
2023-04-12T10:46:03.606Z,100193.37
2023-04-12T10:47:09.098Z,100191.78
2023-04-12T10:48:14.729Z,100188.77
2023-04-12T10:49:20.252Z,100193.56
2023-04-12T10:50:25.681Z,100193.3
2023-04-12T10:51:31.224Z,100191.21
2023-04-12T10:52:36.690Z,100192.22
2023-04-12T10:53:42.083Z,100191.29
2023-04-12T10:54:47.458Z,100188.69
2023-04-12T10:55:52.857Z,100186.02
2023-04-12T10:56:58.360Z,100192.3
2023-04-12T10:58:03.818Z,100191.78
2023-04-12T10:59:09.248Z,100186.34
2023-04-12T11:00:14.754Z,100188.2
2023-04-12T11:01:20.803Z,100181.66
2023-04-12T11:02:27.029Z,100187.87
2023-04-12T11:03:32.824Z,100174.37
2023-04-12T11:04:38.758Z,100178.38
2023-04-12T11:05:44.571Z,100182.92
2023-04-12T11:06:50.063Z,100179.83
2023-04-12T11:07:56.820Z,100178.49
2023-04-12T11:09:02.567Z,100181.39
2023-04-12T11:10:08.120Z,100182.41
2023-04-12T11:11:13.502Z,100175.97
2023-04-12T11:12:19.015Z,100168.27
2023-04-12T11:13:24.375Z,100171.28
2023-04-12T11:14:29.847Z,100170.61
2023-04-12T11:15:35.261Z,100164.09
2023-04-12T11:16:40.832Z,100159.97
2023-04-12T11:17:46.544Z,100158.03
2023-04-12T11:18:52.113Z,100161.48
2023-04-12T11:19:59.897Z,100161.63
2023-04-12T11:21:05.319Z,100153.78
2023-04-12T11:22:10.712Z,100154.79
2023-04-12T11:23:17.337Z,100148.98
2023-04-12T11:24:22.973Z,100156.46
2023-04-12T11:25:28.441Z,100148.31
2023-04-12T11:26:33.875Z,100144.3
2023-04-12T11:27:39.259Z,100150.59
2023-04-12T11:28:44.654Z,100148.76
2023-04-12T11:29:50.114Z,100151.19
2023-04-12T11:30:55.503Z,100149.77
2023-04-12T11:32:01.062Z,100140.88
2023-04-12T11:33:06.594Z,100142.63
2023-04-12T11:34:15.479Z,100143.64
2023-04-12T11:35:21.468Z,100132.59
2023-04-12T11:36:26.838Z,100133.85
2023-04-12T11:37:32.251Z,100139.13
2023-04-12T11:38:37.720Z,100136.2
2023-04-12T11:39:43.206Z,100134.12
2023-04-12T11:40:48.612Z,100138.47
2023-04-12T11:41:53.958Z,100136.8
2023-04-12T11:42:59.338Z,100132.97
2023-04-12T11:44:04.789Z,100130.17
2023-04-12T11:45:18.418Z,100129.44
2023-04-12T11:46:24.158Z,100127.27
2023-04-12T11:47:29.799Z,100127.17
2023-04-12T11:48:35.387Z,100127.42
2023-04-12T11:49:40.739Z,100113.09
2023-04-12T11:50:48.435Z,100125.41
2023-04-12T11:52:14.460Z,100118.78
2023-04-12T11:53:19.818Z,100120.53
2023-04-12T11:54:25.246Z,100122.73
2023-04-12T11:55:30.605Z,100119.53
2023-04-12T11:56:35.973Z,100120.45
2023-04-12T11:57:41.318Z,100113.77
2023-04-12T11:58:46.697Z,100116.36
2023-04-12T11:59:52.092Z,100112.94
2023-04-12T12:00:57.499Z,100102.23
2023-04-12T12:02:22.334Z,100110.27
2023-04-12T12:03:30.798Z,100107.91
2023-04-12T12:04:36.851Z,100096.69
2023-04-12T12:05:43.006Z,100097.02
2023-04-12T12:06:52.324Z,100090.84
2023-04-12T12:08:01.316Z,100094.86
2023-04-12T12:09:06.789Z,100089.5
2023-04-12T12:10:14.728Z,100083.63
2023-04-12T12:11:41.823Z,100084.03
2023-04-12T12:12:47.165Z,100083.63
2023-04-12T12:13:52.965Z,100083.29
2023-04-12T12:14:58.355Z,100083.63
2023-04-12T12:16:03.862Z,100081.95
2023-04-12T12:17:09.378Z,100070.83
2023-04-12T12:18:14.780Z,100080.59
2023-04-12T12:19:20.193Z,100075.16
2023-04-12T12:20:25.816Z,100078.25
2023-04-12T12:21:31.245Z,100076.25
2023-04-12T12:22:36.634Z,100073.63
2023-04-12T12:23:42.012Z,100071.39
2023-04-12T12:24:47.393Z,100071.06
2023-04-12T12:26:00.180Z,100056.82
2023-04-12T12:27:22.741Z,100060.35
2023-04-12T12:28:28.244Z,100065.38
2023-04-12T12:29:33.644Z,100069.48
2023-04-12T12:30:39.069Z,100065.71
2023-04-12T12:31:44.785Z,100062.02
2023-04-12T12:32:50.352Z,100062.69
2023-04-12T12:33:55.777Z,100062.24